createdAt,value
2022-12-27T00:04:50.112Z,101876.34
2022-12-27T00:09:51.655Z,101882.50
2022-12-27T00:14:53.176Z,101881.31
2022-12-27T00:19:54.714Z,101887.91
2022-12-27T00:24:56.293Z,101883.34
2022-12-27T00:29:58.124Z,101883.59
2022-12-27T00:34:59.593Z,101890.41
2022-12-27T00:40:01.186Z,101883.91
2022-12-27T00:45:02.714Z,101898.72
2022-12-27T00:50:05.010Z,101896.81
2022-12-27T00:55:06.858Z,101890.97
2022-12-27T01:00:10.623Z,101895.13
2022-12-27T01:05:12.332Z,101897.59
2022-12-27T01:10:14.017Z,101899.44
2022-12-27T01:15:15.593Z,101901.41
2022-12-27T01:20:17.181Z,101911.91
2022-12-27T01:25:18.704Z,101929.19
2022-12-27T01:30:20.191Z,101935.59
2022-12-27T01:35:21.651Z,101942.09
2022-12-27T01:40:23.306Z,101941.91
2022-12-27T01:45:43.667Z,101947.81
2022-12-27T01:50:49.285Z,101961.97
2022-12-27T01:55:56.865Z,101968.34
2022-12-27T02:00:59.270Z,101961.72
2022-12-27T02:06:03.076Z,101970.38
2022-12-27T02:11:06.185Z,101982.59
2022-12-27T02:16:18.598Z,101986.38
2022-12-27T02:21:45.933Z,101992.03
2022-12-27T02:27:07.904Z,102003.09
2022-12-27T02:32:16.955Z,102007.06
2022-12-27T02:37:20.811Z,102001.63
2022-12-27T02:42:41.029Z,102006.69
2022-12-27T02:48:03.937Z,102007.53
2022-12-27T02:53:08.368Z,102016.78
2022-12-27T02:58:32.268Z,102015.16
2022-12-27T03:03:47.145Z,102008.63
2022-12-27T03:08:59.662Z,102013.16
2022-12-27T03:14:53.967Z,102023.00
2022-12-27T03:20:21.787Z,102021.38
2022-12-27T03:25:31.013Z,102017.91
2022-12-27T03:30:51.727Z,102027.59
2022-12-27T03:36:20.847Z,102024.66
2022-12-27T03:41:49.799Z,102035.19
2022-12-27T03:46:59.507Z,102038.94
2022-12-27T03:52:31.668Z,102046.50
2022-12-27T03:57:33.362Z,102052.88
2022-12-27T04:02:35.015Z,102053.16
2022-12-27T04:07:36.651Z,102063.09
2022-12-27T04:12:57.122Z,102074.88
2022-12-27T04:18:17.099Z,102069.19
2022-12-27T04:23:37.401Z,102075.47
2022-12-27T04:28:57.980Z,102071.00
2022-12-27T04:34:18.161Z,102078.34
2022-12-27T04:39:19.681Z,102082.13
2022-12-27T04:44:39.825Z,102072.75
2022-12-27T04:50:00.168Z,102070.28
2022-12-27T04:55:18.571Z,102080.13
2022-12-27T05:00:40.354Z,102082.03
2022-12-27T05:05:44.039Z,102086.56
2022-12-27T05:11:04.194Z,102097.88
2022-12-27T05:16:06.290Z,102103.66
2022-12-27T05:21:08.362Z,102111.38
2022-12-27T05:26:09.832Z,102097.09
2022-12-27T05:31:11.402Z,102114.97
2022-12-27T05:36:13.515Z,102115.63
2022-12-27T05:41:15.206Z,102126.53
2022-12-27T05:46:20.154Z,102130.09
2022-12-27T05:51:22.015Z,102131.06
2022-12-27T05:56:23.527Z,102141.59
2022-12-27T06:01:25.215Z,102145.16
2022-12-27T06:06:26.814Z,102149.13
2022-12-27T06:11:28.294Z,102156.06
2022-12-27T06:16:29.823Z,102154.03
2022-12-27T06:21:31.367Z,102157.09
2022-12-27T06:26:33.347Z,102160.59
2022-12-27T06:31:35.161Z,102168.03
2022-12-27T06:36:36.666Z,102180.28
2022-12-27T06:41:38.162Z,102184.13
2022-12-27T06:46:39.639Z,102176.13
2022-12-27T06:51:41.257Z,102181.38
2022-12-27T06:56:43.004Z,102183.56
2022-12-27T07:01:44.581Z,102179.25
2022-12-27T07:06:46.255Z,102177.41
2022-12-27T07:11:47.877Z,102194.28
2022-12-27T07:16:50.125Z,102187.25
2022-12-27T07:21:51.704Z,102190.69
2022-12-27T07:26:53.233Z,102203.50
2022-12-27T07:31:54.802Z,102207.22
2022-12-27T07:36:56.329Z,102210.28
2022-12-27T07:42:00.725Z,102223.50
2022-12-27T07:47:05.283Z,102230.41
2022-12-27T07:52:06.741Z,102233.66
2022-12-27T07:57:08.295Z,102229.66
2022-12-27T08:02:10.094Z,102232.25
2022-12-27T08:07:15.404Z,102231.31
2022-12-27T08:12:17.064Z,102260.16
2022-12-27T08:17:22.701Z,102250.13
2022-12-27T08:22:24.761Z,102255.41
2022-12-27T08:27:26.420Z,102257.69
2022-12-27T08:32:27.932Z,102277.88
2022-12-27T08:37:29.535Z,102283.63
2022-12-27T08:42:31.057Z,102282.88
2022-12-27T08:47:32.569Z,102290.16
2022-12-27T08:52:35.275Z,102279.84
2022-12-27T08:57:36.768Z,102281.16
2022-12-27T09:02:38.449Z,102270.78
2022-12-27T09:07:40.053Z,102270.81
2022-12-27T09:12:41.919Z,102272.34
2022-12-27T09:17:43.848Z,102287.09
2022-12-27T09:22:45.498Z,102290.91
2022-12-27T09:27:46.988Z,102294.94
2022-12-27T09:32:48.534Z,102294.75
2022-12-27T09:37:50.867Z,102300.47
2022-12-27T09:43:19.488Z,102296.78
2022-12-27T09:48:39.646Z,102295.44
2022-12-27T09:54:00.206Z,102290.59
2022-12-27T09:59:07.405Z,102295.97
2022-12-27T10:04:13.399Z,102297.31
2022-12-27T10:09:46.011Z,102308.81
2022-12-27T10:15:09.352Z,102310.72
2022-12-27T10:20:20.194Z,102323.38
2022-12-27T10:25:24.755Z,102322.78
2022-12-27T10:30:30.615Z,102318.09
2022-12-27T10:35:32.111Z,102314.50
2022-12-27T10:40:49.040Z,102291.75
2022-12-27T10:45:50.556Z,102306.22
2022-12-27T10:50:59.751Z,102304.13
2022-12-27T10:56:20.898Z,102301.09
2022-12-27T11:01:24.291Z,102292.97
2022-12-27T11:06:26.221Z,102309.19
2022-12-27T11:11:27.868Z,102303.94
2022-12-27T11:16:32.236Z,102306.28
2022-12-27T11:21:39.145Z,102318.25
2022-12-27T11:26:53.928Z,102315.03
2022-12-27T11:31:56.864Z,102316.06
2022-12-27T11:37:14.087Z,102314.16
2022-12-27T11:42:43.068Z,102313.19
2022-12-27T11:47:44.483Z,102308.97
2022-12-27T11:53:01.153Z,102296.47
2022-12-27T11:58:48.922Z,102287.38
2022-12-27T12:04:28.013Z,102271.25
2022-12-27T12:09:34.500Z,102271.09
2022-12-27T12:14:54.243Z,102261.88
2022-12-27T12:20:17.443Z,102263.72
2022-12-27T12:25:41.873Z,102253.78
2022-12-27T12:30:56.068Z,102245.38
2022-12-27T12:36:18.018Z,102230.69
2022-12-27T12:41:42.756Z,102214.53
2022-12-27T12:46:57.691Z,102219.34
2022-12-27T12:52:38.082Z,102205.03
2022-12-27T12:58:05.789Z,102194.75
2022-12-27T13:03:17.843Z,102194.69
2022-12-27T13:08:42.527Z,102192.78
2022-12-27T13:14:02.800Z,102181.41
2022-12-27T13:19:22.416Z,102164.75
2022-12-27T13:24:51.667Z,102155.88
2022-12-27T13:30:24.088Z,102144.91
2022-12-27T13:36:03.115Z,102137.97
2022-12-27T13:41:30.691Z,102146.59
2022-12-27T13:46:58.993Z,102132.91
2022-12-27T13:52:29.587Z,102126.69
2022-12-27T13:57:38.924Z,102123.00
2022-12-27T14:03:04.973Z,102118.25
2022-12-27T14:08:28.150Z,102116.88
2022-12-27T14:13:42.437Z,102108.09
2022-12-27T14:18:58.718Z,102100.50
2022-12-27T14:24:25.403Z,102099.81
2022-12-27T14:30:04.819Z,102086.34
2022-12-27T14:35:09.246Z,102077.16
2022-12-27T14:40:41.508Z,102066.75
2022-12-27T14:46:01.293Z,102060.44
2022-12-27T14:52:00.019Z,102061.53
2022-12-27T14:57:19.389Z,102049.31
2022-12-27T15:02:41.671Z,102054.44
2022-12-27T15:08:00.991Z,102065.72
2022-12-27T15:13:02.481Z,102072.75
2022-12-27T15:18:21.680Z,102071.75
2022-12-27T15:23:23.151Z,102065.00
2022-12-27T15:28:36.772Z,102060.13
2022-12-27T15:34:26.698Z,102062.25
2022-12-27T15:39:34.132Z,102064.09
2022-12-27T15:45:00.602Z,102074.81
2022-12-27T15:50:47.866Z,102058.78
2022-12-27T15:56:08.191Z,102051.78
2022-12-27T16:01:29.678Z,102054.19
2022-12-27T16:06:34.429Z,102040.16
2022-12-27T16:12:35.952Z,102022.69
2022-12-27T16:17:56.223Z,102029.53
2022-12-27T16:23:02.909Z,102033.22
2022-12-27T16:28:04.369Z,102018.50
2022-12-27T16:33:10.867Z,102005.59
2022-12-27T16:38:22.190Z,101999.81
2022-12-27T16:43:38.871Z,101985.13
2022-12-27T16:49:02.024Z,101983.81
2022-12-27T16:54:26.701Z,101976.25
2022-12-27T17:00:05.670Z,101964.28
2022-12-27T17:05:34.494Z,101964.28
2022-12-27T17:10:42.138Z,101957.56
2022-12-27T17:15:56.714Z,101949.47
2022-12-27T17:21:04.360Z,101945.47
2022-12-27T17:26:22.205Z,101954.19
2022-12-27T17:31:47.085Z,101964.66
2022-12-27T17:36:53.253Z,101950.28
2022-12-27T17:42:23.008Z,101940.47
2022-12-27T17:48:03.455Z,101921.13
2022-12-27T17:53:30.542Z,101903.03
2022-12-27T17:58:34.483Z,101894.06
2022-12-27T18:03:41.815Z,101891.56
2022-12-27T18:08:47.181Z,101887.22
2022-12-27T18:13:54.442Z,101882.94
2022-12-27T18:18:59.923Z,101858.66
2022-12-27T18:24:01.514Z,101869.38
2022-12-27T18:29:05.040Z,101859.84
2022-12-27T18:34:19.534Z,101846.00
2022-12-27T18:39:31.203Z,101831.06
2022-12-27T18:44:47.046Z,101824.25
2022-12-27T18:49:55.545Z,101828.47
2022-12-27T18:55:28.979Z,101813.56
2022-12-27T19:00:31.052Z,101802.81
2022-12-27T19:05:32.848Z,101802.72
2022-12-27T19:10:34.655Z,101805.09
2022-12-27T19:15:44.074Z,101788.88
2022-12-27T19:20:54.484Z,101769.41
2022-12-27T19:26:00.276Z,101761.38
2022-12-27T19:31:21.534Z,101759.00
2022-12-27T19:36:47.441Z,101758.78
2022-12-27T19:41:50.255Z,101736.94
2022-12-27T19:46:51.741Z,101717.59
2022-12-27T19:51:56.406Z,101717.28
2022-12-27T19:56:57.942Z,101709.47
2022-12-27T20:01:59.549Z,101702.22
2022-12-27T20:07:01.542Z,101695.53
2022-12-27T20:12:03.210Z,101686.25
2022-12-27T20:17:04.891Z,101692.06
2022-12-27T20:22:06.565Z,101677.03
2022-12-27T20:27:08.098Z,101685.00
2022-12-27T20:32:09.720Z,101667.13
2022-12-27T20:37:11.392Z,101678.09
2022-12-27T20:42:12.916Z,101660.66
2022-12-27T20:47:14.513Z,101656.66
2022-12-27T20:52:16.991Z,101653.31
2022-12-27T20:57:18.568Z,101642.47
2022-12-27T21:02:20.270Z,101631.44
2022-12-27T21:07:22.086Z,101638.38
2022-12-27T21:12:23.666Z,101628.34
2022-12-27T21:17:25.210Z,101614.06
2022-12-27T21:22:26.697Z,101616.22
2022-12-27T21:27:28.272Z,101605.91
2022-12-27T21:32:30.009Z,101596.41
2022-12-27T21:37:31.523Z,101590.38
2022-12-27T21:42:33.130Z,101578.06
2022-12-27T21:47:34.680Z,101568.22
2022-12-27T21:52:36.241Z,101569.72
2022-12-27T21:57:37.733Z,101561.41
2022-12-27T22:02:39.368Z,101543.91
2022-12-27T22:07:41.005Z,101550.50
2022-12-27T22:12:42.554Z,101548.97
2022-12-27T22:17:44.063Z,101539.94
2022-12-27T22:22:45.654Z,101528.03
2022-12-27T22:27:47.186Z,101502.59
2022-12-27T22:32:48.714Z,101496.91
2022-12-27T22:37:50.186Z,101485.97
2022-12-27T22:42:51.703Z,101477.63
2022-12-27T22:47:53.287Z,101458.69
2022-12-27T22:52:54.826Z,101451.78
2022-12-27T22:57:56.364Z,101442.78
2022-12-27T23:02:57.878Z,101418.88
2022-12-27T23:08:05.899Z,101414.19
2022-12-27T23:13:08.380Z,101401.63
2022-12-27T23:18:09.914Z,101388.28
2022-12-27T23:23:11.450Z,101369.88
2022-12-27T23:28:13.030Z,101361.53
2022-12-27T23:33:14.656Z,101359.13
2022-12-27T23:38:16.150Z,101348.75
2022-12-27T23:43:50.621Z,101339.28
2022-12-27T23:48:39.065Z,101330.72
2022-12-27T23:53:40.660Z,101319.00
2022-12-27T23:58:42.791Z,101307.97
